Rnli Lifeboat 17-16 — MCQT8 — position and weather

sailwx.info

Track history (hours):
 
Tides and Currents Weather Stations Pressure Air Temp Water Temp Dewpoint Dewpoint Depression Visibility Wind Speed Wind Dir Waves Ship Positions

Rnli Lifeboat 17-16

Last reported at 2014-Jul-31 18:34 UTC. Time now 2014-Jul-31 23:46 UTC.
Position N 59°02' W 003°23'.

Length 17 m; draft 1.4 m.

Type: SAR. MMSI: 232003134.

Date/timePositionNaut miles runAvg speedWind from/ knotsBaromVisibWave heightAir tempDewpointWater temp
2014-Jul-31 18:34N 59°02' W 003°23'5 1.0
2014-Jul-31 13:21N 58°58' W 003°18'0 0.0
2014-Jul-31 12:28N 58°58' W 003°18'0 0.0
2014-Jul-31 11:32N 58°58' W 003°18'0 0.0
2014-Jul-31 03:26N 58°58' W 003°18'0 0.0
2014-Jul-31 02:33N 58°58' W 003°18'0 0.0
2014-Jul-31 01:33N 58°58' W 003°18'0 0.0
2014-Jul-31 00:32N 58°58' W 003°18'0 0.0
2014-Jul-30 23:33N 58°58' W 003°18'0 0.0
2014-Jul-30 22:33N 58°58' W 003°18'0 0.0
2014-Jul-30 21:26N 58°58' W 003°18'0 0.0
2014-Jul-30 20:26N 58°58' W 003°18'0 0.0
2014-Jul-30 14:33N 58°58' W 003°18'0 0.0
2014-Jul-30 13:33N 58°58' W 003°18'0 0.0
2014-Jul-30 12:33N 58°58' W 003°18'0 0.2
2014-Jul-30 11:33N 58°58' W 003°18'0 0.2
2014-Jul-30 10:33N 58°58' W 003°18'0 0.0
2014-Jul-30 09:15N 58°58' W 003°18'0 0.0
2014-Jul-29 02:06N 58°58' W 003°18'0 0.0
2014-Jul-29 01:28N 58°58' W 003°18'0 0.0
2014-Jul-29 00:32N 58°58' W 003°18'0 0.0
2014-Jul-28 23:32N 58°58' W 003°18'0 0.0
2014-Jul-28 22:33N 58°58' W 003°18'0 0.0
2014-Jul-28 21:33N 58°58' W 003°18'0 0.0
2014-Jul-28 18:32N 58°58' W 003°18'0 0.0
2014-Jul-28 17:19N 58°58' W 003°18'0 0.0
2014-Jul-28 12:26N 58°58' W 003°18'0 0.0
2014-Jul-28 11:32N 58°58' W 003°18'0 0.0
2014-Jul-28 10:32N 58°58' W 003°18'0 0.0
2014-Jul-28 09:33N 58°58' W 003°18'0 0.0
2014-Jul-28 07:28N 58°58' W 003°18'0 0.0
2014-Jul-28 01:26N 58°58' W 003°18'0 0.0
2014-Jul-28 00:31N 58°58' W 003°18'0 0.0
2014-Jul-27 23:26N 58°58' W 003°18'0 0.0
2014-Jul-27 22:33N 58°58' W 003°18'0 0.0
2014-Jul-27 21:33N 58°58' W 003°18'0 0.0
2014-Jul-27 20:33N 58°58' W 003°18'0 0.0
2014-Jul-27 19:30N 58°58' W 003°18'0 0.0
2014-Jul-27 18:32N 58°58' W 003°18'0 0.0
2014-Jul-27 17:30N 58°58' W 003°18'0 0.0
2014-Jul-27 12:32N 58°58' W 003°18'0 0.0
2014-Jul-27 11:31N 58°58' W 003°18'0 0.0
2014-Jul-27 10:34N 58°58' W 003°18'0 0.0
2014-Jul-27 09:33N 58°58' W 003°18'0 0.0
2014-Jul-27 08:33N 58°58' W 003°18'0 0.0
2014-Jul-27 07:33N 58°58' W 003°18'0 0.0
2014-Jul-27 06:34N 58°58' W 003°18'0 0.0
2014-Jul-27 01:30N 58°58' W 003°18'0 0.0
2014-Jul-27 00:32N 58°58' W 003°18'0 0.0
2014-Jul-26 23:29N 58°58' W 003°18'0 0.0
2014-Jul-26 22:33N 58°58' W 003°18'0 0.0
2014-Jul-26 21:34N 58°58' W 003°18'0 0.0
2014-Jul-26 20:06N 58°58' W 003°18'0 0.0
2014-Jul-26 19:34N 58°58' W 003°18'0 0.0
2014-Jul-26 18:30N 58°58' W 003°18'0 0.0
2014-Jul-26 12:23N 58°58' W 003°18'0 0.0
2014-Jul-25 23:31N 58°58' W 003°18'0 0.0
2014-Jul-25 22:33N 58°58' W 003°18'0 0.0
2014-Jul-25 21:30N 58°58' W 003°18'0 0.0
2014-Jul-25 20:25N 58°58' W 003°18'0 0.0
2014-Jul-25 19:33N 58°58' W 003°18'0 0.0
2014-Jul-25 18:15N 58°58' W 003°18'0 0.0
2014-Jul-25 17:30N 58°58' W 003°18'0 0.0
2014-Jul-25 11:17N 58°58' W 003°18'3 4.1
2014-Jul-25 10:33N 58°60' W 003°22'7 5.4
2014-Jul-25 09:13N 59°07' W 003°21'6 9.2
2014-Jul-25 08:33N 59°01' W 003°22'4 3.2
2014-Jul-25 07:25N 58°58' W 003°18'0 0.0
2014-Jul-25 06:29N 58°58' W 003°18'0 0.0
2014-Jul-24 23:32N 58°58' W 003°18'0 0.0
2014-Jul-24 22:30N 58°58' W 003°18'0 0.0
2014-Jul-24 21:28N 58°58' W 003°18'6 6.8
2014-Jul-24 20:33N 59°04' W 003°22'1 1.5
2014-Jul-24 19:33N 59°05' W 003°24'4 4.0
2014-Jul-24 18:33N 59°02' W 003°29'6 6.2
2014-Jul-24 17:31N 59°07' W 003°21'8 8.0
2014-Jul-24 16:33N 58°59' W 003°22'2 1.8
2014-Jul-24 15:13N 58°58' W 003°18'0 0.0
2014-Jul-24 14:03N 58°58' W 003°18'0 0.0
2014-Jul-24 13:28N 58°58' W 003°18'0 0.0
2014-Jul-24 12:33N 58°58' W 003°18'0 0.0
2014-Jul-24 10:33N 58°58' W 003°18'0 0.0
2014-Jul-24 09:32N 58°58' W 003°18'0 0.0
2014-Jul-24 08:33N 58°58' W 003°18'0 0.0
2014-Jul-24 07:33N 58°58' W 003°18'0 0.0
2014-Jul-24 06:33N 58°58' W 003°18'0 0.0
2014-Jul-24 05:28N 58°58' W 003°18'0 0.0
2014-Jul-24 04:33N 58°58' W 003°18'0 0.0
2014-Jul-24 03:08N 58°58' W 003°18'0 0.0
2014-Jul-24 02:33N 58°58' W 003°18'0 0.0
2014-Jul-24 01:28N 58°58' W 003°18'0 0.0
2014-Jul-24 00:33N 58°58' W 003°18'0 0.0
2014-Jul-23 23:34N 58°58' W 003°18'0 0.0
2014-Jul-23 22:29N 58°58' W 003°18'0 0.0
2014-Jul-23 21:33N 58°58' W 003°18'0 0.0
2014-Jul-23 20:33N 58°58' W 003°18'0 0.0
2014-Jul-23 19:20N 58°58' W 003°18'0 0.0
2014-Jul-23 18:33N 58°58' W 003°18'0 0.0
2014-Jul-23 17:12N 58°58' W 003°18'0 0.0
2014-Jul-23 16:32N 58°58' W 003°18'0 0.0
2014-Jul-23 15:33N 58°58' W 003°18'0 0.0
2014-Jul-23 14:33N 58°58' W 003°18'0 0.0
2014-Jul-23 13:33N 58°58' W 003°18'0 0.0
2014-Jul-23 12:31N 58°58' W 003°18'0 0.0
2014-Jul-23 11:33N 58°58' W 003°18'0 0.0
2014-Jul-23 10:33N 58°58' W 003°18'0 0.0
2014-Jul-23 09:33N 58°58' W 003°18'0 0.0
2014-Jul-23 08:33N 58°58' W 003°18'0 0.0
2014-Jul-23 07:33N 58°58' W 003°18'0 0.0
2014-Jul-23 06:33N 58°58' W 003°18'0 0.0
2014-Jul-23 05:33N 58°58' W 003°18'0 0.0
2014-Jul-23 04:33N 58°58' W 003°18'0 0.0
2014-Jul-23 03:18N 58°58' W 003°18'0 0.0
2014-Jul-23 02:33N 58°58' W 003°18'0 0.0
2014-Jul-23 01:33N 58°58' W 003°18'0 0.0
2014-Jul-23 00:33N 58°58' W 003°18'0 0.0
2014-Jul-22 23:33N 58°58' W 003°18'0 0.0
2014-Jul-22 22:29N 58°58' W 003°18'0 0.0
2014-Jul-22 21:26N 58°58' W 003°18'0 0.0
2014-Jul-22 20:17N 58°58' W 003°18'0 0.0
2014-Jul-22 19:33N 58°58' W 003°18'0 0.0
2014-Jul-22 18:33N 58°58' W 003°18'0 0.0
2014-Jul-22 17:33N 58°58' W 003°18'0 0.0
2014-Jul-22 16:33N 58°58' W 003°18'0 0.0
2014-Jul-22 15:32N 58°58' W 003°18'0 0.0
2014-Jul-22 14:33N 58°58' W 003°18'0 0.0
2014-Jul-22 13:31N 58°58' W 003°18'0 0.0
2014-Jul-22 12:32N 58°58' W 003°18'0 0.0
2014-Jul-22 11:29N 58°58' W 003°18'0 0.0
2014-Jul-22 10:32N 58°58' W 003°18'0 0.0
2014-Jul-22 09:33N 58°58' W 003°18'0 0.0
2014-Jul-22 08:17N 58°58' W 003°18'  
Track history (hours):
 
Tides and Currents Weather Stations Pressure Air Temp Water Temp Dewpoint Dewpoint Depression Visibility Wind Speed Wind Dir Waves Ship Positions

Rnli Lifeboat 17-16

Last reported at 2014-Jul-31 18:34 UTC. Time now 2014-Jul-31 23:46 UTC.
Position N 59°02' W 003°23'.

Length 17 m; draft 1.4 m.

Type: SAR. MMSI: 232003134.

Date/timePositionNaut miles runAvg speedWind from/ knotsBaromVisibWave heightAir tempDewpointWater temp
2014-Jul-31 18:34N 59°02' W 003°23'5 1.0
2014-Jul-31 13:21N 58°58' W 003°18'0 0.0
2014-Jul-31 12:28N 58°58' W 003°18'0 0.0
2014-Jul-31 11:32N 58°58' W 003°18'0 0.0
2014-Jul-31 03:26N 58°58' W 003°18'0 0.0
2014-Jul-31 02:33N 58°58' W 003°18'0 0.0
2014-Jul-31 01:33N 58°58' W 003°18'0 0.0
2014-Jul-31 00:32N 58°58' W 003°18'0 0.0
2014-Jul-30 23:33N 58°58' W 003°18'0 0.0
2014-Jul-30 22:33N 58°58' W 003°18'0 0.0
2014-Jul-30 21:26N 58°58' W 003°18'0 0.0
2014-Jul-30 20:26N 58°58' W 003°18'0 0.0
2014-Jul-30 14:33N 58°58' W 003°18'0 0.0
2014-Jul-30 13:33N 58°58' W 003°18'0 0.0
2014-Jul-30 12:33N 58°58' W 003°18'0 0.2
2014-Jul-30 11:33N 58°58' W 003°18'0 0.2
2014-Jul-30 10:33N 58°58' W 003°18'0 0.0
2014-Jul-30 09:15N 58°58' W 003°18'0 0.0
2014-Jul-29 02:06N 58°58' W 003°18'0 0.0
2014-Jul-29 01:28N 58°58' W 003°18'0 0.0
2014-Jul-29 00:32N 58°58' W 003°18'0 0.0
2014-Jul-28 23:32N 58°58' W 003°18'0 0.0
2014-Jul-28 22:33N 58°58' W 003°18'0 0.0
2014-Jul-28 21:33N 58°58' W 003°18'0 0.0
2014-Jul-28 18:32N 58°58' W 003°18'0 0.0
2014-Jul-28 17:19N 58°58' W 003°18'0 0.0
2014-Jul-28 12:26N 58°58' W 003°18'0 0.0
2014-Jul-28 11:32N 58°58' W 003°18'0 0.0
2014-Jul-28 10:32N 58°58' W 003°18'0 0.0
2014-Jul-28 09:33N 58°58' W 003°18'0 0.0
2014-Jul-28 07:28N 58°58' W 003°18'0 0.0
2014-Jul-28 01:26N 58°58' W 003°18'0 0.0
2014-Jul-28 00:31N 58°58' W 003°18'0 0.0
2014-Jul-27 23:26N 58°58' W 003°18'0 0.0
2014-Jul-27 22:33N 58°58' W 003°18'0 0.0
2014-Jul-27 21:33N 58°58' W 003°18'0 0.0
2014-Jul-27 20:33N 58°58' W 003°18'0 0.0
2014-Jul-27 19:30N 58°58' W 003°18'0 0.0
2014-Jul-27 18:32N 58°58' W 003°18'0 0.0
2014-Jul-27 17:30N 58°58' W 003°18'0 0.0
2014-Jul-27 12:32N 58°58' W 003°18'0 0.0
2014-Jul-27 11:31N 58°58' W 003°18'0 0.0
2014-Jul-27 10:34N 58°58' W 003°18'0 0.0
2014-Jul-27 09:33N 58°58' W 003°18'0 0.0
2014-Jul-27 08:33N 58°58' W 003°18'0 0.0
2014-Jul-27 07:33N 58°58' W 003°18'0 0.0
2014-Jul-27 06:34N 58°58' W 003°18'0 0.0
2014-Jul-27 01:30N 58°58' W 003°18'0 0.0
2014-Jul-27 00:32N 58°58' W 003°18'0 0.0
2014-Jul-26 23:29N 58°58' W 003°18'0 0.0
2014-Jul-26 22:33N 58°58' W 003°18'0 0.0
2014-Jul-26 21:34N 58°58' W 003°18'0 0.0
2014-Jul-26 20:06N 58°58' W 003°18'0 0.0
2014-Jul-26 19:34N 58°58' W 003°18'0 0.0
2014-Jul-26 18:30N 58°58' W 003°18'0 0.0
2014-Jul-26 12:23N 58°58' W 003°18'0 0.0
2014-Jul-25 23:31N 58°58' W 003°18'0 0.0
2014-Jul-25 22:33N 58°58' W 003°18'0 0.0
2014-Jul-25 21:30N 58°58' W 003°18'0 0.0
2014-Jul-25 20:25N 58°58' W 003°18'0 0.0
2014-Jul-25 19:33N 58°58' W 003°18'0 0.0
2014-Jul-25 18:15N 58°58' W 003°18'0 0.0
2014-Jul-25 17:30N 58°58' W 003°18'0 0.0
2014-Jul-25 11:17N 58°58' W 003°18'3 4.1
2014-Jul-25 10:33N 58°60' W 003°22'7 5.4
2014-Jul-25 09:13N 59°07' W 003°21'6 9.2
2014-Jul-25 08:33N 59°01' W 003°22'4 3.2
2014-Jul-25 07:25N 58°58' W 003°18'0 0.0
2014-Jul-25 06:29N 58°58' W 003°18'0 0.0
2014-Jul-24 23:32N 58°58' W 003°18'0 0.0
2014-Jul-24 22:30N 58°58' W 003°18'0 0.0
2014-Jul-24 21:28N 58°58' W 003°18'6 6.8
2014-Jul-24 20:33N 59°04' W 003°22'1 1.5
2014-Jul-24 19:33N 59°05' W 003°24'4 4.0
2014-Jul-24 18:33N 59°02' W 003°29'6 6.2
2014-Jul-24 17:31N 59°07' W 003°21'8 8.0
2014-Jul-24 16:33N 58°59' W 003°22'2 1.8
2014-Jul-24 15:13N 58°58' W 003°18'0 0.0
2014-Jul-24 14:03N 58°58' W 003°18'0 0.0
2014-Jul-24 13:28N 58°58' W 003°18'0 0.0
2014-Jul-24 12:33N 58°58' W 003°18'0 0.0
2014-Jul-24 10:33N 58°58' W 003°18'0 0.0
2014-Jul-24 09:32N 58°58' W 003°18'0 0.0
2014-Jul-24 08:33N 58°58' W 003°18'0 0.0
2014-Jul-24 07:33N 58°58' W 003°18'0 0.0
2014-Jul-24 06:33N 58°58' W 003°18'0 0.0
2014-Jul-24 05:28N 58°58' W 003°18'0 0.0
2014-Jul-24 04:33N 58°58' W 003°18'0 0.0
2014-Jul-24 03:08N 58°58' W 003°18'0 0.0
2014-Jul-24 02:33N 58°58' W 003°18'0 0.0
2014-Jul-24 01:28N 58°58' W 003°18'0 0.0
2014-Jul-24 00:33N 58°58' W 003°18'0 0.0
2014-Jul-23 23:34N 58°58' W 003°18'0 0.0
2014-Jul-23 22:29N 58°58' W 003°18'0 0.0
2014-Jul-23 21:33N 58°58' W 003°18'0 0.0
2014-Jul-23 20:33N 58°58' W 003°18'0 0.0
2014-Jul-23 19:20N 58°58' W 003°18'0 0.0
2014-Jul-23 18:33N 58°58' W 003°18'0 0.0
2014-Jul-23 17:12N 58°58' W 003°18'0 0.0
2014-Jul-23 16:32N 58°58' W 003°18'0 0.0
2014-Jul-23 15:33N 58°58' W 003°18'0 0.0
2014-Jul-23 14:33N 58°58' W 003°18'0 0.0
2014-Jul-23 13:33N 58°58' W 003°18'0 0.0
2014-Jul-23 12:31N 58°58' W 003°18'0 0.0
2014-Jul-23 11:33N 58°58' W 003°18'0 0.0
2014-Jul-23 10:33N 58°58' W 003°18'0 0.0
2014-Jul-23 09:33N 58°58' W 003°18'0 0.0
2014-Jul-23 08:33N 58°58' W 003°18'0 0.0
2014-Jul-23 07:33N 58°58' W 003°18'0 0.0
2014-Jul-23 06:33N 58°58' W 003°18'0 0.0
2014-Jul-23 05:33N 58°58' W 003°18'0 0.0
2014-Jul-23 04:33N 58°58' W 003°18'0 0.0
2014-Jul-23 03:18N 58°58' W 003°18'0 0.0
2014-Jul-23 02:33N 58°58' W 003°18'0 0.0
2014-Jul-23 01:33N 58°58' W 003°18'0 0.0
2014-Jul-23 00:33N 58°58' W 003°18'0 0.0
2014-Jul-22 23:33N 58°58' W 003°18'0 0.0
2014-Jul-22 22:29N 58°58' W 003°18'0 0.0
2014-Jul-22 21:26N 58°58' W 003°18'0 0.0
2014-Jul-22 20:17N 58°58' W 003°18'0 0.0
2014-Jul-22 19:33N 58°58' W 003°18'0 0.0
2014-Jul-22 18:33N 58°58' W 003°18'0 0.0
2014-Jul-22 17:33N 58°58' W 003°18'0 0.0
2014-Jul-22 16:33N 58°58' W 003°18'0 0.0
2014-Jul-22 15:32N 58°58' W 003°18'0 0.0
2014-Jul-22 14:33N 58°58' W 003°18'0 0.0
2014-Jul-22 13:31N 58°58' W 003°18'0 0.0
2014-Jul-22 12:32N 58°58' W 003°18'0 0.0
2014-Jul-22 11:29N 58°58' W 003°18'0 0.0
2014-Jul-22 10:32N 58°58' W 003°18'0 0.0
2014-Jul-22 09:33N 58°58' W 003°18'0 0.0
2014-Jul-22 08:17N 58°58' W 003°18'  

Dump ship's entire track history